createdAt,value
2023-12-13T00:00:09.264Z,142.90
2023-12-13T00:03:12.603Z,140.80
2023-12-13T00:06:16.271Z,148.57
2023-12-13T00:09:19.151Z,163.30
2023-12-13T00:12:22.672Z,147.93
2023-12-13T00:15:25.651Z,147.27
2023-12-13T00:18:29.533Z,148.02
2023-12-13T00:21:32.945Z,142.23
2023-12-13T00:24:36.350Z,154.23
2023-12-13T00:27:39.567Z,151.48
2023-12-13T00:30:43.278Z,146.48
2023-12-13T00:33:46.402Z,145.90
2023-12-13T00:36:50.150Z,149.57
2023-12-13T00:39:53.960Z,155.48
2023-12-13T00:42:57.670Z,164.27
2023-12-13T00:46:01.011Z,163.07
2023-12-13T00:49:04.559Z,158.40
2023-12-13T00:52:08.183Z,154.43
2023-12-13T00:55:11.794Z,146.63
2023-12-13T00:58:15.214Z,145.95
2023-12-13T01:01:20.210Z,137.63
2023-12-13T01:04:23.898Z,137.70
2023-12-13T01:07:27.740Z,132.93
2023-12-13T01:10:30.523Z,129.23
2023-12-13T01:13:34.755Z,132.55
2023-12-13T01:16:38.299Z,129.18
2023-12-13T01:19:42.149Z,128.45
2023-12-13T01:22:45.485Z,124.63
2023-12-13T01:25:48.906Z,128.25
2023-12-13T01:28:52.245Z,129.63
2023-12-13T01:31:55.764Z,121.80
2023-12-13T01:34:59.117Z,122.63
2023-12-13T01:38:02.715Z,121.40
2023-12-13T01:41:12.435Z,124.95
2023-12-13T01:44:18.017Z,122.78
2023-12-13T01:47:21.615Z,124.78
2023-12-13T01:50:27.084Z,121.15
2023-12-13T01:53:31.882Z,124.25
2023-12-13T01:56:35.589Z,127.85
2023-12-13T01:59:39.404Z,126.45
2023-12-13T02:02:43.246Z,131.70
2023-12-13T02:05:46.472Z,131.80
2023-12-13T02:08:49.802Z,125.68
2023-12-13T02:11:53.311Z,132.05
2023-12-13T02:14:57.112Z,117.88
2023-12-13T02:18:01.103Z,128.30
2023-12-13T02:21:04.838Z,126.88
2023-12-13T02:24:10.180Z,130.30
2023-12-13T02:27:13.980Z,127.32
2023-12-13T02:30:17.773Z,133.07
2023-12-13T02:33:27.475Z,125.45
2023-12-13T02:36:31.035Z,125.68
2023-12-13T02:39:34.232Z,127.55
2023-12-13T02:42:37.521Z,135.57
2023-12-13T02:45:40.715Z,121.68
2023-12-13T02:48:44.288Z,128.93
2023-12-13T02:51:47.922Z,121.82
2023-12-13T02:54:51.419Z,125.50
2023-12-13T02:57:54.818Z,118.60
2023-12-13T03:00:58.077Z,116.68
2023-12-13T03:04:03.762Z,112.93
2023-12-13T03:07:07.365Z,116.78
2023-12-13T03:10:10.732Z,105.75
2023-12-13T03:13:14.184Z,115.80
2023-12-13T03:16:17.275Z,120.20
2023-12-13T03:19:20.297Z,117.63
2023-12-13T03:22:24.048Z,118.10
2023-12-13T03:25:27.366Z,119.18
2023-12-13T03:28:31.009Z,125.60
2023-12-13T03:31:34.597Z,114.00
2023-12-13T03:34:38.183Z,110.68
2023-12-13T03:37:41.804Z,109.35
2023-12-13T03:40:44.893Z,105.03
2023-12-13T03:43:48.473Z,100.97
2023-12-13T03:46:51.738Z,101.57
2023-12-13T03:49:54.655Z,98.70
2023-12-13T03:52:58.332Z,90.28
2023-12-13T03:56:02.046Z,100.10
2023-12-13T03:59:05.240Z,100.70
2023-12-13T04:02:09.648Z,92.13
2023-12-13T04:05:13.319Z,92.45
2023-12-13T04:08:16.865Z,93.15
2023-12-13T04:11:19.810Z,98.00
2023-12-13T04:14:22.842Z,89.35
2023-12-13T04:17:26.880Z,80.88
2023-12-13T04:20:30.356Z,77.40
2023-12-13T04:23:33.652Z,68.57
2023-12-13T04:26:37.459Z,64.65
2023-12-13T04:29:41.061Z,79.07
2023-12-13T04:32:44.618Z,73.57
2023-12-13T04:35:48.267Z,78.53
2023-12-13T04:38:51.666Z,111.75
2023-12-13T04:41:55.177Z,109.57
2023-12-13T04:44:58.668Z,129.82
2023-12-13T04:48:02.427Z,108.22
2023-12-13T04:51:06.096Z,74.95
2023-12-13T04:54:09.393Z,132.75
2023-12-13T04:57:12.770Z,80.10
2023-12-13T05:00:16.499Z,73.20
2023-12-13T05:03:19.605Z,76.68
2023-12-13T05:06:22.660Z,59.22
2023-12-13T05:09:26.067Z,61.53
2023-12-13T05:12:28.735Z,69.38
2023-12-13T05:15:32.150Z,78.13
2023-12-13T05:18:36.386Z,96.78
2023-12-13T05:21:39.445Z,110.18
2023-12-13T05:24:42.636Z,85.50
2023-12-13T05:27:46.339Z,91.45
2023-12-13T05:30:49.813Z,77.13
2023-12-13T05:33:52.889Z,76.15
2023-12-13T05:36:56.330Z,70.75
2023-12-13T05:39:59.734Z,98.72
2023-12-13T05:43:03.634Z,88.55
2023-12-13T05:46:09.491Z,85.68
2023-12-13T05:49:13.389Z,91.68
2023-12-13T05:52:16.617Z,77.47
2023-12-13T05:55:19.761Z,72.57
2023-12-13T05:58:22.815Z,68.45
2023-12-13T06:01:26.253Z,62.67
2023-12-13T06:04:30.129Z,85.75
2023-12-13T06:07:34.320Z,75.75
2023-12-13T06:10:37.548Z,62.85
2023-12-13T06:13:41.036Z,68.15
2023-12-13T06:16:44.153Z,58.50
2023-12-13T06:19:47.858Z,58.08
2023-12-13T06:22:51.330Z,49.25
2023-12-13T06:25:54.829Z,38.13
2023-12-13T06:28:58.243Z,34.97
2023-12-13T06:32:01.493Z,34.85
2023-12-13T06:35:05.275Z,35.97
2023-12-13T06:38:08.782Z,38.03
2023-12-13T06:41:11.682Z,38.67
2023-12-13T06:44:15.212Z,40.17
2023-12-13T06:47:19.107Z,35.85
2023-12-13T06:50:22.394Z,37.63
2023-12-13T06:53:25.788Z,37.38
2023-12-13T06:56:29.616Z,40.47
2023-12-13T06:59:32.997Z,41.72
2023-12-13T07:02:38.117Z,43.92
2023-12-13T07:05:41.366Z,45.88
2023-12-13T07:08:44.730Z,46.50
2023-12-13T07:11:48.121Z,44.88
2023-12-13T07:14:51.421Z,48.88
2023-12-13T07:17:55.464Z,48.50
2023-12-13T07:20:59.137Z,51.38
2023-12-13T07:24:02.638Z,51.42
2023-12-13T07:27:06.036Z,48.85
2023-12-13T07:30:09.830Z,44.08
2023-12-13T07:33:14.104Z,48.55
2023-12-13T07:36:18.375Z,60.95
2023-12-13T07:39:21.580Z,52.17
2023-12-13T07:42:24.776Z,58.75
2023-12-13T07:45:27.853Z,49.58
2023-12-13T07:48:31.450Z,49.42
2023-12-13T07:51:36.081Z,45.45
2023-12-13T07:54:39.177Z,52.05
2023-12-13T07:57:42.570Z,47.08
2023-12-13T08:00:45.688Z,53.05
2023-12-13T08:03:49.469Z,55.05
2023-12-13T08:06:54.093Z,58.42
2023-12-13T08:10:00.888Z,58.03
2023-12-13T08:13:04.925Z,68.25
2023-12-13T08:16:08.283Z,58.28
2023-12-13T08:19:11.712Z,50.25
2023-12-13T08:22:14.705Z,52.25
2023-12-13T08:25:18.455Z,55.63
2023-12-13T08:28:21.491Z,49.00
2023-12-13T08:31:27.459Z,48.70
2023-12-13T08:34:31.170Z,44.38
2023-12-13T08:37:34.453Z,60.72
2023-12-13T08:40:37.954Z,65.90
2023-12-13T08:43:41.065Z,73.38
2023-12-13T08:46:45.160Z,54.85
2023-12-13T08:49:48.870Z,49.95
2023-12-13T08:52:53.103Z,58.45
2023-12-13T08:55:56.838Z,56.60
2023-12-13T08:59:00.084Z,55.70
2023-12-13T09:02:03.485Z,54.63
2023-12-13T09:05:07.267Z,50.78
2023-12-13T09:08:10.775Z,57.20
2023-12-13T09:11:14.168Z,53.70
2023-12-13T09:14:18.276Z,51.83
2023-12-13T09:17:21.880Z,56.70
2023-12-13T09:20:25.696Z,87.53
2023-12-13T09:23:29.496Z,92.18
2023-12-13T09:26:33.516Z,66.63
2023-12-13T09:29:36.396Z,47.90
2023-12-13T09:32:46.270Z,55.97
2023-12-13T09:35:51.586Z,57.17
2023-12-13T09:38:55.086Z,52.38
2023-12-13T09:42:07.791Z,47.47
2023-12-13T09:45:22.899Z,44.50
2023-12-13T09:48:29.213Z,46.60
2023-12-13T09:51:34.230Z,40.38
2023-12-13T09:54:40.760Z,40.70
2023-12-13T09:57:43.953Z,42.00
2023-12-13T10:00:47.384Z,39.15
2023-12-13T10:03:50.530Z,41.33
2023-12-13T10:06:54.236Z,42.15
2023-12-13T10:09:57.739Z,45.97
2023-12-13T10:13:03.035Z,45.75
2023-12-13T10:16:14.864Z,46.58
2023-12-13T10:19:18.250Z,38.50
2023-12-13T10:22:21.497Z,39.17
2023-12-13T10:25:25.510Z,40.00
2023-12-13T10:28:28.612Z,38.65
2023-12-13T10:31:35.267Z,41.00
2023-12-13T10:34:39.292Z,46.72
2023-12-13T10:37:44.061Z,47.22
2023-12-13T10:40:47.862Z,45.88
2023-12-13T10:43:53.503Z,45.03
2023-12-13T10:46:58.581Z,47.47
2023-12-13T10:50:03.725Z,50.38
2023-12-13T10:53:09.067Z,46.22
2023-12-13T10:56:13.699Z,46.38
2023-12-13T10:59:18.020Z,42.67
2023-12-13T11:02:22.841Z,43.63
2023-12-13T11:05:26.651Z,41.50
2023-12-13T11:08:39.576Z,42.08
2023-12-13T11:11:46.493Z,43.78
2023-12-13T11:14:51.972Z,42.08
2023-12-13T11:17:57.433Z,46.20
2023-12-13T11:21:06.885Z,40.20
2023-12-13T11:24:10.487Z,51.20
2023-12-13T11:27:16.758Z,44.15
2023-12-13T11:30:21.419Z,50.88
2023-12-13T11:33:24.974Z,61.60
2023-12-13T11:36:28.505Z,55.55
2023-12-13T11:39:32.810Z,48.78
2023-12-13T11:42:36.402Z,39.55
2023-12-13T11:45:48.829Z,40.38
2023-12-13T11:48:53.486Z,45.58
2023-12-13T11:51:57.580Z,84.75
2023-12-13T11:55:01.805Z,52.13
2023-12-13T11:58:05.890Z,45.55
2023-12-13T12:01:14.496Z,60.22
2023-12-13T12:04:21.236Z,68.30
2023-12-13T12:07:24.397Z,43.90
2023-12-13T12:10:27.740Z,49.42
2023-12-13T12:13:30.990Z,32.28
2023-12-13T12:16:34.710Z,35.38
2023-12-13T12:19:39.620Z,32.13
2023-12-13T12:22:42.732Z,33.67
2023-12-13T12:25:46.537Z,33.20
2023-12-13T12:28:50.362Z,35.00
2023-12-13T12:31:53.350Z,35.47
2023-12-13T12:34:57.074Z,31.67
2023-12-13T12:38:00.544Z,35.95
2023-12-13T12:41:04.253Z,34.00
2023-12-13T12:44:07.427Z,35.92
2023-12-13T12:47:11.132Z,32.45
2023-12-13T12:50:15.315Z,30.05
2023-12-13T12:53:19.148Z,35.20
2023-12-13T12:56:22.021Z,53.08
2023-12-13T12:59:25.422Z,58.67
2023-12-13T13:02:29.238Z,67.70
2023-12-13T13:05:32.935Z,103.22
2023-12-13T13:08:37.464Z,139.60
2023-12-13T13:11:42.697Z,95.43
2023-12-13T13:14:46.205Z,65.22
2023-12-13T13:17:49.738Z,60.42
2023-12-13T13:20:53.655Z,66.15
2023-12-13T13:23:57.323Z,93.05
2023-12-13T13:27:00.716Z,80.43
2023-12-13T13:30:05.281Z,43.53
2023-12-13T13:33:08.941Z,42.90
2023-12-13T13:36:15.744Z,39.50
2023-12-13T13:39:18.919Z,44.80
2023-12-13T13:42:23.028Z,59.90
2023-12-13T13:45:26.433Z,47.90
2023-12-13T13:48:29.684Z,44.40
2023-12-13T13:51:33.328Z,46.10
2023-12-13T13:54:36.758Z,51.65
2023-12-13T13:57:40.434Z,50.85
2023-12-13T14:00:43.520Z,49.33
2023-12-13T14:03:46.916Z,50.72
2023-12-13T14:06:50.025Z,56.42
2023-12-13T14:09:53.718Z,53.30
2023-12-13T14:12:56.806Z,59.45
2023-12-13T14:15:59.802Z,63.55
2023-12-13T14:19:06.933Z,66.22
2023-12-13T14:22:10.573Z,66.32
2023-12-13T14:25:14.602Z,74.90
2023-12-13T14:28:18.106Z,79.57
2023-12-13T14:31:21.836Z,79.47
2023-12-13T14:34:25.439Z,76.70
2023-12-13T14:37:29.038Z,75.95
2023-12-13T14:40:32.547Z,76.97
2023-12-13T14:43:36.134Z,81.65
2023-12-13T14:46:39.766Z,80.47
2023-12-13T14:49:43.110Z,82.40
2023-12-13T14:52:46.742Z,89.50
2023-12-13T14:55:50.660Z,80.78
2023-12-13T14:58:54.092Z,78.68
2023-12-13T15:01:57.368Z,92.50
2023-12-13T15:05:01.048Z,92.15
2023-12-13T15:08:08.207Z,80.82
2023-12-13T15:11:11.464Z,85.53
2023-12-13T15:14:16.447Z,77.18
2023-12-13T15:17:19.837Z,78.40
2023-12-13T15:20:23.670Z,87.05
2023-12-13T15:23:26.760Z,256.25
2023-12-13T15:26:30.379Z,199.35
2023-12-13T15:29:34.043Z,70.57
2023-12-13T15:32:37.918Z,83.15
2023-12-13T15:35:42.271Z,100.28
2023-12-13T15:38:45.361Z,95.70
2023-12-13T15:41:48.660Z,112.80
2023-12-13T15:44:51.749Z,104.43
2023-12-13T15:47:55.177Z,99.30
2023-12-13T15:50:58.443Z,90.03
2023-12-13T15:54:01.844Z,87.15
2023-12-13T15:57:05.552Z,100.30
2023-12-13T16:00:10.501Z,93.20
2023-12-13T16:03:13.599Z,94.53
2023-12-13T16:06:17.003Z,98.72
2023-12-13T16:09:20.265Z,87.85
2023-12-13T16:12:24.259Z,81.85
2023-12-13T16:15:29.124Z,82.57
2023-12-13T16:18:32.693Z,73.55
2023-12-13T16:21:36.212Z,73.88
2023-12-13T16:39:54.580Z,123.00
2023-12-13T16:42:59.669Z,110.30
2023-12-13T16:46:02.203Z,95.90
2023-12-13T16:49:04.506Z,75.55
2023-12-13T16:52:06.873Z,58.75
2023-12-13T16:55:10.136Z,77.40
2023-12-13T16:58:12.436Z,69.88
2023-12-13T17:13:18.496Z,78.85
2023-12-13T17:16:20.960Z,56.88
2023-12-13T17:19:23.312Z,62.55
2023-12-13T17:22:25.816Z,52.47
2023-12-13T17:25:28.031Z,47.45
2023-12-13T17:28:30.215Z,51.15
2023-12-13T17:31:32.351Z,50.88
2023-12-13T17:34:35.182Z,122.78
2023-12-13T17:37:37.549Z,61.97
2023-12-13T17:40:40.085Z,53.38
2023-12-13T17:43:42.593Z,47.38
2023-12-13T17:46:44.856Z,36.85
2023-12-13T17:49:47.289Z,41.38
2023-12-13T17:52:49.648Z,37.88
2023-12-13T17:55:51.806Z,39.08
2023-12-13T17:58:54.200Z,37.30
2023-12-13T18:01:56.527Z,36.72
2023-12-13T18:05:00.993Z,38.88
2023-12-13T18:08:03.517Z,48.45
2023-12-13T18:11:06.358Z,50.20
2023-12-13T18:14:08.607Z,86.28
2023-12-13T18:17:10.760Z,68.18
2023-12-13T18:20:13.387Z,56.67
2023-12-13T18:23:16.248Z,44.80
2023-12-13T18:26:19.069Z,70.10
2023-12-13T18:29:21.526Z,53.03
2023-12-13T18:32:24.157Z,41.67
2023-12-13T18:35:27.178Z,40.28
2023-12-13T18:38:33.153Z,45.22
2023-12-13T18:41:35.659Z,38.97
2023-12-13T18:44:38.315Z,42.40
2023-12-13T18:47:44.071Z,45.03
2023-12-13T18:50:47.287Z,29.27
2023-12-13T18:53:49.884Z,33.50
2023-12-13T18:56:54.924Z,24.83
2023-12-13T18:59:58.059Z,26.13
2023-12-13T19:03:00.956Z,24.35
2023-12-13T19:06:04.218Z,30.08
2023-12-13T19:09:06.871Z,25.58
2023-12-13T19:12:09.703Z,23.85
2023-12-13T19:15:12.440Z,24.48
2023-12-13T19:18:16.303Z,26.13
2023-12-13T19:21:19.221Z,24.45
2023-12-13T19:24:22.148Z,29.30
2023-12-13T19:27:25.075Z,35.42
2023-12-13T19:30:27.948Z,32.03
2023-12-13T19:33:30.971Z,31.60
2023-12-13T19:36:34.124Z,34.05
2023-12-13T19:39:37.193Z,39.92
2023-12-13T19:42:40.276Z,39.25
2023-12-13T19:45:43.385Z,40.78
2023-12-13T19:48:46.838Z,37.85
2023-12-13T19:51:49.850Z,39.42
2023-12-13T19:54:53.155Z,44.30
2023-12-13T19:57:56.062Z,46.72
2023-12-13T20:01:00.430Z,43.67
2023-12-13T20:04:04.741Z,46.15
2023-12-13T20:07:07.823Z,47.88
2023-12-13T20:10:13.108Z,47.85
2023-12-13T20:13:16.349Z,48.67
2023-12-13T20:16:19.898Z,49.30
2023-12-13T20:19:23.205Z,47.28
2023-12-13T20:22:26.434Z,47.53
2023-12-13T20:25:33.565Z,51.33
2023-12-13T20:28:38.295Z,48.40
2023-12-13T20:31:41.280Z,49.53
2023-12-13T20:34:44.247Z,47.55
2023-12-13T20:37:47.328Z,53.08
2023-12-13T20:40:51.216Z,56.03
2023-12-13T20:43:54.306Z,48.40
2023-12-13T20:46:57.265Z,49.17
2023-12-13T20:50:01.319Z,52.85
2023-12-13T20:53:04.668Z,49.67
2023-12-13T20:56:08.284Z,46.80
2023-12-13T20:59:11.415Z,65.18
2023-12-13T21:02:13.875Z,54.85
2023-12-13T21:05:16.074Z,51.35
2023-12-13T21:08:18.547Z,58.05
2023-12-13T21:11:21.118Z,46.28
2023-12-13T21:14:23.227Z,46.30
2023-12-13T21:17:25.708Z,56.53
2023-12-13T21:20:28.333Z,52.20
2023-12-13T21:23:30.721Z,45.67
2023-12-13T21:26:36.247Z,60.40
2023-12-13T21:29:38.896Z,62.10
2023-12-13T21:32:41.394Z,58.67
2023-12-13T21:35:44.915Z,57.05
2023-12-13T21:38:48.607Z,59.13
2023-12-13T21:41:50.653Z,60.08
2023-12-13T21:44:52.987Z,66.05
2023-12-13T21:47:57.109Z,62.95
2023-12-13T21:50:59.746Z,91.97
2023-12-13T21:54:01.832Z,95.75
2023-12-13T21:57:04.119Z,101.15
2023-12-13T22:00:08.563Z,48.70
2023-12-13T22:03:11.861Z,59.63
2023-12-13T22:06:14.364Z,56.80
2023-12-13T22:09:17.894Z,55.25
2023-12-13T22:12:20.220Z,60.63
2023-12-13T22:15:22.312Z,64.57
2023-12-13T22:18:26.991Z,64.50
2023-12-13T22:21:29.590Z,74.22
2023-12-13T22:24:32.268Z,75.57
2023-12-13T22:27:35.108Z,103.30
2023-12-13T22:30:38.103Z,110.72
2023-12-13T22:33:40.596Z,90.82
2023-12-13T22:36:43.065Z,87.55
2023-12-13T22:39:45.317Z,100.35
2023-12-13T22:42:47.680Z,93.18
2023-12-13T22:45:50.026Z,82.88
2023-12-13T22:48:52.394Z,82.95
2023-12-13T22:52:19.055Z,67.72
2023-12-13T22:55:16.709Z,62.65
2023-12-13T22:58:18.974Z,66.78
2023-12-13T23:01:21.255Z,74.22
2023-12-13T23:04:23.631Z,72.15
2023-12-13T23:07:28.923Z,77.25
2023-12-13T23:10:31.426Z,223.63
2023-12-13T23:13:33.804Z,133.85
2023-12-13T23:16:38.189Z,86.60
2023-12-13T23:19:40.736Z,73.40
2023-12-13T23:22:43.391Z,70.07
2023-12-13T23:25:45.481Z,76.82
2023-12-13T23:28:48.018Z,68.68
2023-12-13T23:31:50.375Z,67.13
2023-12-13T23:34:52.927Z,74.80
2023-12-13T23:37:55.093Z,90.20
2023-12-13T23:40:57.533Z,76.70
2023-12-13T23:44:00.080Z,76.43
2023-12-13T23:47:02.532Z,66.82
2023-12-13T23:50:05.387Z,65.43
2023-12-13T23:53:07.871Z,77.82
2023-12-13T23:56:26.815Z,66.38
2023-12-13T23:59:29.229Z,63.53
